createdAt,value
2023-03-22T00:02:13.938Z,11.10
2023-03-22T00:04:43.602Z,11.20
2023-03-22T00:07:10.328Z,11.20
2023-03-22T00:09:37.046Z,11.20
2023-03-22T00:12:03.997Z,11.20
2023-03-22T00:14:30.745Z,11.20
2023-03-22T00:16:57.547Z,11.20
2023-03-22T00:19:24.336Z,11.20
2023-03-22T00:21:51.471Z,11.30
2023-03-22T00:24:18.169Z,11.30
2023-03-22T00:26:47.197Z,11.30
2023-03-22T00:29:13.944Z,11.20
2023-03-22T00:31:41.241Z,11.30
2023-03-22T00:34:07.988Z,11.30
2023-03-22T00:36:34.715Z,11.20
2023-03-22T00:39:01.404Z,11.30
2023-03-22T00:41:28.243Z,11.30
2023-03-22T00:43:54.911Z,11.30
2023-03-22T00:46:21.952Z,11.30
2023-03-22T00:48:49.012Z,11.30
2023-03-22T00:51:16.139Z,11.30
2023-03-22T00:53:43.751Z,11.30
2023-03-22T00:56:14.333Z,11.30
2023-03-22T00:58:42.126Z,11.30
2023-03-22T01:01:08.929Z,11.20
2023-03-22T01:03:35.898Z,11.20
2023-03-22T01:06:02.613Z,11.20
2023-03-22T01:08:33.218Z,11.20
2023-03-22T01:11:00.860Z,11.20
2023-03-22T01:13:27.747Z,11.20
2023-03-22T01:15:54.523Z,11.20
2023-03-22T01:18:21.278Z,11.20
2023-03-22T01:20:48.004Z,11.20
2023-03-22T01:23:14.753Z,11.20
2023-03-22T01:25:41.463Z,11.20
2023-03-22T01:28:08.700Z,11.20
2023-03-22T01:30:35.521Z,11.20
2023-03-22T01:33:02.340Z,11.20
2023-03-22T01:35:29.078Z,11.20
2023-03-22T01:37:55.812Z,11.20
2023-03-22T01:40:22.548Z,11.20
2023-03-22T01:42:49.245Z,11.20
2023-03-22T01:45:19.250Z,11.20
2023-03-22T01:47:47.898Z,11.10
2023-03-22T01:50:14.750Z,11.10
2023-03-22T01:52:41.435Z,11.20
2023-03-22T01:55:09.388Z,11.20
2023-03-22T01:57:37.911Z,11.20
2023-03-22T02:00:10.296Z,11.20
2023-03-22T02:02:37.044Z,11.20
2023-03-22T02:05:04.202Z,11.20
2023-03-22T02:07:31.844Z,11.20
2023-03-22T02:09:59.259Z,11.20
2023-03-22T02:12:50.496Z,11.20
2023-03-22T02:15:24.101Z,11.20
2023-03-22T02:18:28.935Z,11.10
2023-03-22T02:21:04.445Z,11.20
2023-03-22T02:23:50.101Z,11.10
2023-03-22T02:26:46.843Z,11.10
2023-03-22T02:29:16.347Z,11.10
2023-03-22T02:31:58.484Z,11.20
2023-03-22T02:34:40.339Z,11.10
2023-03-22T02:37:27.320Z,11.00
2023-03-22T02:40:05.524Z,11.00
2023-03-22T02:42:59.514Z,10.90
2023-03-22T02:45:30.148Z,11.00
2023-03-22T02:48:07.179Z,10.90
2023-03-22T02:50:53.905Z,10.90
2023-03-22T02:54:02.925Z,10.90
2023-03-22T02:56:34.716Z,10.90
2023-03-22T02:59:03.223Z,10.90
2023-03-22T03:01:50.034Z,10.90
2023-03-22T03:04:21.235Z,10.90
2023-03-22T03:06:48.857Z,10.90
2023-03-22T03:09:19.634Z,10.90
2023-03-22T03:11:50.866Z,10.90
2023-03-22T03:14:22.308Z,10.90
2023-03-22T03:16:53.790Z,10.90
2023-03-22T03:19:25.952Z,10.90
2023-03-22T03:21:58.961Z,10.90
2023-03-22T03:24:40.165Z,10.90
2023-03-22T03:27:17.734Z,10.90
2023-03-22T03:29:54.687Z,10.80
2023-03-22T03:32:52.618Z,10.80
2023-03-22T03:35:26.087Z,10.80
2023-03-22T03:38:07.864Z,10.70
2023-03-22T03:40:37.594Z,10.80
2023-03-22T03:43:04.674Z,10.70
2023-03-22T03:45:31.449Z,10.70
2023-03-22T03:48:00.311Z,10.60
2023-03-22T03:50:27.097Z,10.60
2023-03-22T03:52:54.415Z,10.60
2023-03-22T03:55:21.726Z,10.70
2023-03-22T03:57:48.466Z,10.60
2023-03-22T04:00:15.576Z,10.60
2023-03-22T04:02:42.654Z,10.60
2023-03-22T04:05:11.018Z,10.50
2023-03-22T04:07:37.854Z,10.50
2023-03-22T04:10:05.992Z,10.50
2023-03-22T04:12:33.157Z,10.50
2023-03-22T04:14:59.932Z,10.50
2023-03-22T04:17:29.105Z,10.50
2023-03-22T04:19:58.970Z,10.50
2023-03-22T04:22:26.319Z,10.50
2023-03-22T04:24:53.016Z,10.50
2023-03-22T04:27:20.568Z,10.50
2023-03-22T04:29:51.360Z,10.40
2023-03-22T04:32:22.876Z,10.40
2023-03-22T04:34:50.325Z,10.40
2023-03-22T04:37:17.120Z,10.40
2023-03-22T04:39:43.906Z,10.30
2023-03-22T04:42:10.735Z,10.30
2023-03-22T04:44:37.474Z,10.30
2023-03-22T04:47:04.273Z,10.30
2023-03-22T04:49:31.477Z,10.30
2023-03-22T04:51:58.227Z,10.30
2023-03-22T04:54:25.130Z,10.30
2023-03-22T04:56:51.812Z,10.30
2023-03-22T04:59:20.306Z,10.30
2023-03-22T05:01:50.663Z,10.30
2023-03-22T05:04:18.118Z,10.30
2023-03-22T05:06:45.235Z,10.20
2023-03-22T05:09:12.019Z,10.20
2023-03-22T05:11:38.734Z,10.20
2023-03-22T05:14:05.750Z,10.20
2023-03-22T05:16:32.868Z,10.20
2023-03-22T05:19:02.475Z,10.20
2023-03-22T05:21:36.601Z,10.20
2023-03-22T05:24:03.493Z,10.20
2023-03-22T05:26:30.438Z,10.20
2023-03-22T05:28:57.191Z,10.20
2023-03-22T05:31:24.013Z,10.20
2023-03-22T05:33:52.038Z,10.20
2023-03-22T05:36:19.347Z,10.20
2023-03-22T05:38:46.610Z,10.20
2023-03-22T05:41:13.511Z,10.20
2023-03-22T05:43:40.807Z,10.20
2023-03-22T05:46:08.738Z,10.10
2023-03-22T05:48:36.425Z,10.10
2023-03-22T05:51:06.784Z,10.10
2023-03-22T05:53:33.549Z,10.10
2023-03-22T05:56:03.397Z,10.20
2023-03-22T05:58:30.870Z,10.20
2023-03-22T06:01:01.040Z,10.20
2023-03-22T06:03:28.419Z,10.20
2023-03-22T06:05:55.171Z,10.10
2023-03-22T06:08:24.767Z,10.20
2023-03-22T06:10:53.324Z,10.20
2023-03-22T06:13:20.373Z,10.20
2023-03-22T06:15:47.142Z,10.20
2023-03-22T06:18:13.994Z,10.20
2023-03-22T06:20:40.977Z,10.20
2023-03-22T06:23:09.169Z,10.20
2023-03-22T06:25:35.982Z,10.20
2023-03-22T06:28:02.769Z,10.20
2023-03-22T06:30:29.493Z,10.20
2023-03-22T06:33:00.438Z,10.20
2023-03-22T06:35:27.664Z,10.10
2023-03-22T06:37:54.460Z,10.10
2023-03-22T06:40:21.266Z,10.10
2023-03-22T06:42:48.314Z,10.10
2023-03-22T06:45:16.507Z,10.20
2023-03-22T06:47:44.167Z,10.20
2023-03-22T06:50:11.165Z,10.20
2023-03-22T06:52:37.968Z,10.20
2023-03-22T06:55:04.997Z,10.20
2023-03-22T06:57:31.736Z,10.20
2023-03-22T06:59:58.459Z,10.20
2023-03-22T07:02:25.178Z,10.20
2023-03-22T07:04:51.860Z,10.20
2023-03-22T07:07:18.589Z,10.30
2023-03-22T07:09:45.366Z,10.30
2023-03-22T07:12:12.167Z,10.30
2023-03-22T07:14:39.572Z,10.40
2023-03-22T07:17:06.348Z,10.40
2023-03-22T07:19:33.282Z,10.40
2023-03-22T07:22:00.026Z,10.50
2023-03-22T07:24:26.747Z,10.50
2023-03-22T07:26:53.504Z,10.50
2023-03-22T07:29:20.183Z,10.60
2023-03-22T07:31:46.909Z,10.70
2023-03-22T07:34:13.802Z,10.60
2023-03-22T07:36:40.655Z,10.70
2023-03-22T07:39:07.432Z,10.70
2023-03-22T07:41:34.204Z,10.70
2023-03-22T07:44:16.666Z,10.70
2023-03-22T07:46:44.360Z,10.70
2023-03-22T07:49:11.138Z,10.80
2023-03-22T07:51:37.873Z,10.80
2023-03-22T07:54:07.142Z,10.80
2023-03-22T07:56:34.429Z,10.80
2023-03-22T07:59:01.259Z,10.80
2023-03-22T08:01:27.968Z,10.80
2023-03-22T08:03:54.769Z,10.80
2023-03-22T08:06:21.612Z,10.90
2023-03-22T08:08:48.342Z,10.90
2023-03-22T08:11:15.605Z,10.90
2023-03-22T08:13:42.315Z,10.90
2023-03-22T08:16:09.080Z,10.90
2023-03-22T08:18:36.089Z,11.00
2023-03-22T08:21:02.850Z,11.00
2023-03-22T08:23:40.994Z,11.00
2023-03-22T08:26:09.632Z,11.00
2023-03-22T08:28:36.477Z,11.00
2023-03-22T08:31:15.796Z,11.00
2023-03-22T08:33:42.868Z,11.00
2023-03-22T08:36:12.034Z,11.00
2023-03-22T08:38:38.691Z,11.00
2023-03-22T08:41:05.465Z,11.10
2023-03-22T08:43:32.171Z,11.10
2023-03-22T08:45:58.945Z,11.10
2023-03-22T08:48:29.065Z,11.20
2023-03-22T08:50:56.092Z,11.20
2023-03-22T08:53:23.001Z,11.20
2023-03-22T08:55:49.807Z,11.30
2023-03-22T08:58:18.571Z,11.30
2023-03-22T09:00:49.063Z,11.40
2023-03-22T09:03:16.645Z,11.40
2023-03-22T09:05:43.421Z,11.50
2023-03-22T09:08:18.201Z,11.50
2023-03-22T09:10:51.614Z,11.50
2023-03-22T09:13:18.910Z,11.50
2023-03-22T09:15:45.928Z,11.50
2023-03-22T09:18:12.934Z,11.50
2023-03-22T09:20:40.051Z,11.50
2023-03-22T09:23:07.151Z,11.50
2023-03-22T09:25:33.925Z,11.50
2023-03-22T09:28:00.649Z,11.50
2023-03-22T09:30:27.400Z,11.50
2023-03-22T09:32:54.416Z,11.60
2023-03-22T09:35:21.364Z,11.60
2023-03-22T09:37:49.535Z,11.70
2023-03-22T09:40:17.346Z,11.80
2023-03-22T09:42:48.354Z,11.80
2023-03-22T09:45:46.519Z,11.90
2023-03-22T09:48:35.968Z,12.00
2023-03-22T09:51:03.665Z,12.00
2023-03-22T09:53:30.619Z,12.00
2023-03-22T09:56:00.853Z,12.10
2023-03-22T09:58:43.715Z,12.10
2023-03-22T10:01:48.385Z,12.30
2023-03-22T10:04:36.838Z,12.30
2023-03-22T10:07:10.202Z,12.40
2023-03-22T10:10:12.270Z,12.50
2023-03-22T10:13:09.385Z,12.50
2023-03-22T10:15:41.218Z,12.50
2023-03-22T10:18:11.746Z,12.60
2023-03-22T10:21:06.226Z,12.60
2023-03-22T10:23:35.431Z,12.60
2023-03-22T10:26:02.628Z,12.60
2023-03-22T10:28:32.466Z,12.70
2023-03-22T10:30:59.265Z,12.60
2023-03-22T10:33:38.999Z,12.70
2023-03-22T10:36:08.271Z,12.70
2023-03-22T10:38:35.244Z,12.80
2023-03-22T10:41:01.973Z,12.70
2023-03-22T10:43:36.883Z,12.70
2023-03-22T10:46:05.053Z,12.70
2023-03-22T10:48:39.668Z,12.50
2023-03-22T10:51:06.550Z,12.50
2023-03-22T10:53:58.234Z,12.50
2023-03-22T10:56:25.122Z,12.50
2023-03-22T10:58:51.932Z,12.40
2023-03-22T11:01:27.116Z,12.40
2023-03-22T11:03:57.549Z,12.30
2023-03-22T11:06:35.330Z,12.20
2023-03-22T11:09:18.259Z,12.30
2023-03-22T11:11:53.546Z,12.30
2023-03-22T11:14:37.028Z,12.30
2023-03-22T11:17:06.641Z,12.30
2023-03-22T11:19:37.200Z,12.40
2023-03-22T11:22:06.514Z,12.40
2023-03-22T11:24:33.703Z,12.60
2023-03-22T11:27:24.290Z,12.70
2023-03-22T11:29:52.594Z,12.80
2023-03-22T11:32:27.629Z,13.00
2023-03-22T11:35:05.035Z,13.00
2023-03-22T11:37:31.846Z,13.20
2023-03-22T11:40:02.193Z,13.40
2023-03-22T11:42:28.957Z,13.50
2023-03-22T11:44:56.057Z,13.40
2023-03-22T11:47:23.382Z,13.40
2023-03-22T11:49:50.908Z,13.50
2023-03-22T11:52:26.191Z,13.60
2023-03-22T11:54:52.992Z,13.60
2023-03-22T11:57:27.745Z,13.70
2023-03-22T12:00:01.059Z,13.70
2023-03-22T12:02:33.381Z,13.70
2023-03-22T12:05:11.307Z,13.60
2023-03-22T12:07:38.106Z,13.70
2023-03-22T12:10:06.827Z,13.70
2023-03-22T12:12:37.165Z,13.70
2023-03-22T12:15:11.039Z,13.80
2023-03-22T12:17:54.913Z,13.90
2023-03-22T12:20:33.510Z,13.90
2023-03-22T12:23:00.235Z,13.90
2023-03-22T12:25:34.116Z,13.90
2023-03-22T12:28:07.173Z,13.80
2023-03-22T12:30:43.229Z,13.90
2023-03-22T12:33:15.787Z,14.10
2023-03-22T12:35:44.274Z,14.10
2023-03-22T12:38:42.468Z,14.20
2023-03-22T12:41:14.954Z,14.30
2023-03-22T12:43:59.189Z,14.40
2023-03-22T12:46:31.770Z,14.40
2023-03-22T12:49:21.682Z,14.40
2023-03-22T12:51:48.478Z,14.40
2023-03-22T12:54:15.321Z,14.50
2023-03-22T12:56:45.992Z,14.40
2023-03-22T12:59:18.294Z,14.50
2023-03-22T13:02:06.454Z,14.50
2023-03-22T13:04:51.328Z,14.50
2023-03-22T13:07:39.107Z,14.40
2023-03-22T13:10:31.027Z,14.30
2023-03-22T13:13:22.895Z,14.30
2023-03-22T13:15:56.792Z,14.30
2023-03-22T13:18:38.703Z,14.40
2023-03-22T13:21:16.452Z,14.40
2023-03-22T13:23:55.124Z,14.60
2023-03-22T13:26:33.297Z,14.70
2023-03-22T13:29:10.027Z,14.90
2023-03-22T13:31:44.923Z,14.90
2023-03-22T13:34:19.679Z,14.90
2023-03-22T13:36:50.067Z,14.90
2023-03-22T13:39:16.858Z,15.00
2023-03-22T13:41:45.999Z,14.80
2023-03-22T13:44:21.025Z,14.80
2023-03-22T13:46:51.711Z,14.80
2023-03-22T13:49:45.787Z,14.60
2023-03-22T13:52:24.414Z,14.60
2023-03-22T13:54:52.659Z,14.60
2023-03-22T13:57:46.398Z,14.60
2023-03-22T14:00:41.281Z,14.40
2023-03-22T14:03:18.125Z,14.40
2023-03-22T14:05:46.056Z,14.30
2023-03-22T14:08:21.993Z,14.30
2023-03-22T14:11:34.201Z,14.30
2023-03-22T14:14:05.064Z,14.20
2023-03-22T14:16:46.962Z,14.10
2023-03-22T14:19:22.304Z,14.00
